Time;durP1;ratioP1;P1;durP2;ratioP2;P2;SDS_P1;SDS_P2;PMS_P1;PMS_P2;Temp;Humidity;BMP_temperature;BMP_pressure;BME280_temperature;BME280_humidity;BME280_pressure;Samples;Min_cycle;Max_cycle;Signal;HPM_P1;HPM_P2
2022/12/14 00:00:25;;;;;;;14.20;6.30;;;;;;;-0.72;76.33;98874.86;24617;1325;3028743;-66
2022/12/14 00:02:54;;;;;;;11.50;6.80;;;;;;;-0.77;76.59;98881.52;24621;1320;3051903;-67
2022/12/14 00:05:23;;;;;;;14.80;7.40;;;;;;;-0.91;77.24;98890.44;24674;1325;3026025;-67
2022/12/14 00:07:52;;;;;;;9.60;5.10;;;;;;;-0.79;77.42;98895.14;24550;1327;3026539;-65
2022/12/14 00:10:21;;;;;;;9.40;5.60;;;;;;;-0.14;76.01;98896.63;24599;1320;3051902;-65
2022/12/14 00:12:50;;;;;;;9.30;4.80;;;;;;;0.41;73.93;98898.24;24550;1325;3028586;-65
2022/12/14 00:15:19;;;;;;;12.60;6.30;;;;;;;0.90;72.94;98899.95;24652;1320;3056462;-65
2022/12/14 00:17:48;;;;;;;10.50;6.20;;;;;;;0.66;71.89;98909.45;24587;1320;3028298;-65
2022/12/14 00:20:18;;;;;;;10.40;6.40;;;;;;;0.57;72.80;98920.55;24630;1326;3049492;-65
2022/12/14 00:22:47;;;;;;;13.90;6.00;;;;;;;0.42;72.60;98931.48;24618;1317;3026337;-67
2022/12/14 00:25:19;;;;;;;12.50;6.90;;;;;;;0.03;73.54;98939.59;24645;1328;3068839;-64
2022/12/14 00:27:48;;;;;;;11.60;6.40;;;;;;;-0.04;74.00;98934.77;24659;1326;3028917;-68
2022/12/14 00:30:19;;;;;;;12.50;6.80;;;;;;;0.18;73.42;98936.79;24668;1331;3048355;-67
2022/12/14 00:32:48;;;;;;;10.10;6.00;;;;;;;-0.04;73.59;98942.70;24614;1329;3026473;-68
2022/12/14 00:35:18;;;;;;;11.50;6.30;;;;;;;-0.07;74.24;98955.19;24626;1333;3029067;-65
2022/12/14 00:37:47;;;;;;;15.40;7.70;;;;;;;-0.05;74.86;98952.52;24638;1326;3026049;-66
2022/12/14 00:40:16;;;;;;;14.70;7.50;;;;;;;-0.02;74.21;98949.02;24572;1332;3026212;-64
2022/12/14 00:42:45;;;;;;;15.30;7.50;;;;;;;-0.00;74.41;98957.42;24571;1327;3049580;-65
2022/12/14 00:45:14;;;;;;;17.30;9.10;;;;;;;0.01;73.94;98962.38;24655;1317;3028435;-66
2022/12/14 00:47:43;;;;;;;19.10;8.80;;;;;;;-0.19;74.48;98964.42;24632;1317;3068115;-67
2022/12/14 00:50:12;;;;;;;17.10;8.40;;;;;;;-0.30;75.21;98969.17;24590;1333;3027280;-66
2022/12/14 00:52:42;;;;;;;17.00;8.70;;;;;;;-0.40;75.53;98967.83;24537;1312;3047960;-68
2022/12/14 00:55:12;;;;;;;14.70;8.90;;;;;;;-0.52;76.26;98962.46;24611;1319;3028383;-67
2022/12/14 00:57:42;;;;;;;15.10;8.10;;;;;;;-0.41;76.01;98964.27;24632;1327;3054968;-66
2022/12/14 01:00:13;;;;;;;16.40;7.90;;;;;;;-0.27;74.80;98962.71;24584;1327;3025959;-65
2022/12/14 01:02:42;;;;;;;17.90;8.40;;;;;;;-0.49;75.97;98967.71;24570;1326;3027062;-66
2022/12/14 01:05:11;;;;;;;9.80;5.90;;;;;;;-0.36;75.83;98975.85;24620;1319;3028308;-65
2022/12/14 01:07:40;;;;;;;14.90;7.90;;;;;;;-0.29;75.18;98981.37;24554;1319;3048230;-66
2022/12/14 01:10:09;;;;;;;15.40;8.20;;;;;;;-0.37;75.60;98988.09;24574;1320;3027940;-64
2022/12/14 01:12:40;;;;;;;11.50;5.80;;;;;;;-0.54;76.36;98990.38;24599;1327;3052409;-66
2022/12/14 01:15:10;;;;;;;11.40;6.60;;;;;;;-0.01;76.00;98991.69;24590;1327;3025802;-68
2022/12/14 01:17:40;;;;;;;10.40;5.60;;;;;;;0.68;74.18;98995.20;24548;1326;3029318;-66
2022/12/14 01:20:09;;;;;;;16.50;7.70;;;;;;;1.27;72.12;99005.95;24655;1319;3028090;-66
2022/12/14 01:22:38;;;;;;;16.00;8.10;;;;;;;1.03;70.91;99003.00;24556;1327;3049874;-65
2022/12/14 01:25:08;;;;;;;17.40;9.40;;;;;;;0.65;72.21;99008.59;24571;1320;3026398;-66
2022/12/14 01:27:38;;;;;;;21.20;10.40;;;;;;;0.29;72.96;99012.98;24666;1319;3026350;-64
2022/12/14 01:30:07;;;;;;;18.00;10.10;;;;;;;-0.06;74.30;99024.38;24575;1327;3028476;-65
2022/12/14 01:32:37;;;;;;;19.40;9.60;;;;;;;-0.15;74.69;99027.33;24633;1327;3068892;-65
2022/12/14 01:35:06;;;;;;;20.40;10.40;;;;;;;-0.16;74.62;99027.52;24597;1327;3026675;-68
2022/12/14 01:37:35;;;;;;;17.00;9.30;;;;;;;-0.30;75.56;99039.91;24654;1329;3051181;-66
2022/12/14 01:40:05;;;;;;;19.70;10.40;;;;;;;-0.19;74.54;99042.91;24584;1325;3028729;-65
2022/12/14 01:42:35;;;;;;;19.70;10.90;;;;;;;-0.44;75.86;99044.16;24552;1326;3052559;-64
2022/12/14 01:45:05;;;;;;;23.20;10.80;;;;;;;-0.48;76.35;99054.42;24570;1327;3026561;-65
2022/12/14 01:47:40;;;;;;;26.70;13.00;;;;;;;-0.47;75.96;99059.05;24654;1326;3028908;-66
2022/12/14 01:50:25;;;;;;;21.80;11.30;;;;;;;-0.74;77.65;99063.58;24647;1326;3049510;-67
2022/12/14 01:52:57;;;;;;;19.50;10.20;;;;;;;-0.70;77.99;99066.41;24551;1326;3056624;-64
2022/12/14 01:55:28;;;;;;;24.40;12.30;;;;;;;-0.76;77.74;99067.76;24576;1322;3025124;-64
2022/12/14 01:58:04;;;;;;;19.30;9.40;;;;;;;-0.76;78.00;99073.77;24593;1327;3028110;-66
2022/12/14 02:00:33;;;;;;;20.30;10.40;;;;;;;-0.78;77.82;99076.91;24625;1329;3053732;-65
2022/12/14 02:03:09;;;;;;;8.90;5.20;;;;;;;-0.70;77.48;99078.28;24577;1318;3026564;-65
2022/12/14 02:05:42;;;;;;;16.60;7.90;;;;;;;0.04;75.99;99083.52;24593;1327;3052587;-64
2022/12/14 02:08:11;;;;;;;15.10;8.20;;;;;;;0.62;73.89;99082.75;24639;1320;3025709;-64
2022/12/14 02:10:40;;;;;;;16.30;9.00;;;;;;;0.44;73.09;99089.11;24564;1319;3028087;-67
2022/12/14 02:13:36;;;;;;;17.30;9.40;;;;;;;0.41;73.47;99099.50;24641;1327;3053136;-65
2022/12/14 02:16:05;;;;;;;18.10;9.00;;;;;;;0.21;73.32;99100.87;24526;1322;3051765;-67
2022/12/14 02:18:34;;;;;;;17.20;8.40;;;;;;;-0.06;73.75;99110.80;24550;1327;3026262;-65
2022/12/14 02:21:35;;;;;;;16.80;9.20;;;;;;;-0.32;74.88;99116.53;24638;1327;3025843;-68
2022/12/14 02:24:42;;;;;;;19.90;8.90;;;;;;;-0.32;74.48;99125.65;24592;1319;3052656;-67
2022/12/14 02:27:20;;;;;;;15.80;8.00;;;;;;;-0.53;75.35;99137.29;24558;1327;3052445;-65
2022/12/14 02:30:13;;;;;;;18.50;9.20;;;;;;;-0.56;75.27;99136.99;24585;1321;3049420;-64
2022/12/14 02:33:04;;;;;;;16.60;8.60;;;;;;;-0.76;76.25;99142.23;24618;1326;3068874;-65
2022/12/14 02:35:36;;;;;;;16.80;9.10;;;;;;;-0.88;76.50;99145.89;24582;1319;3049900;-66
2022/12/14 02:38:36;;;;;;;18.90;8.70;;;;;;;-1.04;77.63;99151.88;24597;1329;3025807;-67
2022/12/14 02:41:37;;;;;;;17.00;9.30;;;;;;;-0.92;76.84;99153.02;24617;1319;3052328;-63
2022/12/14 02:44:24;;;;;;;19.70;10.00;;;;;;;-1.12;77.49;99150.64;24631;1327;3053305;-66
2022/12/14 02:47:06;;;;;;;20.40;9.10;;;;;;;-1.06;77.20;99154.81;24565;1320;3051367;-67
2022/12/14 02:49:51;;;;;;;10.60;5.90;;;;;;;-0.84;77.40;99159.73;24666;1326;3052888;-66
2022/12/14 02:52:32;;;;;;;15.50;7.30;;;;;;;0.10;74.77;99162.08;24614;1326;3050686;-67
2022/12/14 02:55:11;;;;;;;16.50;8.00;;;;;;;0.37;73.82;99167.17;24579;1320;3068624;-66
2022/12/14 02:57:47;;;;;;;17.50;8.40;;;;;;;0.34;73.50;99167.06;24530;1320;3053029;-65
2022/12/14 03:00:17;;;;;;;12.80;7.20;;;;;;;0.06;73.49;99170.10;24613;1323;3057546;-66
2022/12/14 03:02:46;;;;;;;14.70;7.60;;;;;;;-0.07;73.73;99175.91;24555;1325;3028591;-65
2022/12/14 03:05:15;;;;;;;14.40;7.90;;;;;;;-0.36;74.01;99177.72;24637;1315;3028080;-64
2022/12/14 03:07:45;;;;;;;17.30;8.90;;;;;;;-0.22;73.90;99178.47;24579;1327;3056514;-65
2022/12/14 03:10:36;;;;;;;16.60;8.00;;;;;;;-0.41;74.24;99180.23;24592;1318;3028668;-68
2022/12/14 03:13:12;;;;;;;14.50;6.80;;;;;;;-0.58;75.07;99183.84;24614;1327;3053226;-65
2022/12/14 03:15:47;;;;;;;15.80;7.90;;;;;;;-0.77;75.86;99189.02;24522;1320;3051263;-65
2022/12/14 03:18:17;;;;;;;18.20;9.10;;;;;;;-0.73;75.68;99201.85;24521;1327;3026435;-66
2022/12/14 03:20:47;;;;;;;16.90;8.10;;;;;;;-0.80;75.79;99196.48;24570;1327;3026546;-64
2022/12/14 03:23:24;;;;;;;15.80;8.10;;;;;;;-0.83;76.31;99196.88;24640;1327;3051026;-66
2022/12/14 03:25:57;;;;;;;16.50;8.40;;;;;;;-0.82;76.10;99204.94;24628;1333;3052467;-65
2022/12/14 03:28:30;;;;;;;15.00;7.30;;;;;;;-1.01;77.31;99207.16;24565;1334;3026297;-67
2022/12/14 03:31:05;;;;;;;17.60;7.90;;;;;;;-0.99;77.25;99210.58;24658;1328;3026230;-67
2022/12/14 03:33:34;;;;;;;15.00;8.10;;;;;;;-0.92;76.49;99213.55;24522;1323;3050363;-66
2022/12/14 03:36:11;;;;;;;18.10;8.50;;;;;;;-0.91;76.10;99218.17;24633;1320;3026512;-66
2022/12/14 03:38:42;;;;;;;10.30;5.40;;;;;;;-0.90;76.91;99221.42;24620;1328;3070023;-64
2022/12/14 03:41:36;;;;;;;14.10;6.90;;;;;;;-0.08;75.25;99227.56;24626;1328;3025809;-64
2022/12/14 03:44:18;;;;;;;8.10;4.70;;;;;;;0.73;72.29;99230.40;24631;1331;3057195;-65
2022/12/14 03:46:50;;;;;;;13.10;6.80;;;;;;;0.65;71.62;99230.77;24602;1328;3052390;-65
2022/12/14 03:50:01;;;;;;;11.40;6.70;;;;;;;0.47;71.83;99240.15;24653;1321;3026427;-65
2022/12/14 03:52:34;;;;;;;11.20;5.90;;;;;;;0.11;72.30;99243.88;24540;1318;3051048;-66
2022/12/14 03:55:34;;;;;;;11.10;5.70;;;;;;;-0.06;72.71;99245.78;24629;1328;3025500;-66
2022/12/14 03:58:13;;;;;;;13.70;6.90;;;;;;;-0.12;72.36;99241.59;24623;1323;3049262;-65
2022/12/14 04:01:05;;;;;;;10.60;6.20;;;;;;;-0.56;74.15;99245.58;24651;1326;3069330;-65
2022/12/14 04:04:03;;;;;;;11.40;6.30;;;;;;;-1.02;76.33;99247.08;24590;1328;3050320;-64
2022/12/14 04:07:17;;;;;;;12.90;5.90;;;;;;;-1.05;76.82;99257.10;24534;1327;3056798;-66
2022/12/14 04:19:14;;;;;;;7.70;5.20;;;;;;;-1.12;75.69;99267.70;24614;1324;3053244;-64
2022/12/14 04:21:56;;;;;;;15.90;7.00;;;;;;;-1.35;75.49;99281.98;24587;1337;3049687;-66
2022/12/14 04:31:14;;;;;;;12.90;5.30;;;;;;;-1.61;75.09;99290.75;24602;1319;3056871;-66
2022/12/14 04:33:47;;;;;;;15.20;6.80;;;;;;;-1.66;75.46;99298.72;24619;1318;3026083;-66
2022/12/14 04:36:23;;;;;;;12.50;6.00;;;;;;;-1.72;75.36;99305.52;24546;1328;3026047;-64
2022/12/14 04:39:04;;;;;;;10.10;5.60;;;;;;;-1.75;75.48;99306.08;24529;1327;3051970;-65
2022/12/14 04:41:37;;;;;;;17.70;6.80;;;;;;;-1.93;75.80;99318.14;24556;1328;3052744;-66
2022/12/14 04:44:33;;;;;;;13.30;6.00;;;;;;;-1.84;75.99;99320.94;24593;1327;3048013;-66
2022/12/14 04:47:04;;;;;;;16.60;7.20;;;;;;;-1.72;75.35;99327.49;24538;1317;3068477;-65
2022/12/14 04:49:56;;;;;;;18.50;7.40;;;;;;;-1.84;75.55;99328.16;24653;1318;3026860;-64
2022/12/14 04:52:31;;;;;;;14.60;6.60;;;;;;;-1.74;75.41;99336.62;24603;1330;3056424;-64
2022/12/14 04:55:11;;;;;;;17.00;7.30;;;;;;;-1.70;74.66;99345.15;24599;1327;3051769;-66
2022/12/14 04:57:45;;;;;;;12.80;7.10;;;;;;;-1.75;75.02;99345.90;24602;1327;3052352;-66
2022/12/14 05:00:14;;;;;;;18.40;8.70;;;;;;;-1.75;75.11;99353.63;24558;1327;3051250;-65
2022/12/14 05:03:24;;;;;;;18.50;9.70;;;;;;;-1.71;74.84;99353.41;24554;1330;3026743;-66
2022/12/14 05:06:31;;;;;;;17.90;9.10;;;;;;;-1.74;74.69;99366.67;24610;1328;3049003;-66
2022/12/14 05:09:16;;;;;;;19.60;10.10;;;;;;;-1.85;75.20;99372.13;24603;1319;3068905;-65
2022/12/14 05:12:02;;;;;;;15.70;8.70;;;;;;;-2.05;76.11;99372.53;24603;1320;3050771;-66
2022/12/14 05:14:38;;;;;;;15.70;8.30;;;;;;;-2.08;76.61;99377.88;24606;1317;3056596;-65
2022/12/14 05:17:08;;;;;;;15.40;8.80;;;;;;;-2.03;76.09;99384.52;24614;1327;3053051;-65
2022/12/14 05:19:43;;;;;;;15.00;8.40;;;;;;;-2.12;75.89;99392.68;24680;1314;3028174;-68
2022/12/14 05:22:12;;;;;;;11.10;4.70;;;;;;;-2.03;75.48;99398.25;24640;1327;3056793;-63
2022/12/14 05:24:41;;;;;;;17.50;6.40;;;;;;;-1.31;75.01;99399.60;24573;1324;3026375;-63
2022/12/14 05:27:10;;;;;;;11.30;5.60;;;;;;;-0.53;71.90;99402.95;24576;1323;3049871;-65
2022/12/14 05:29:39;;;;;;;16.50;6.40;;;;;;;-0.64;71.31;99404.17;24631;1324;3028300;-66
2022/12/14 05:32:10;;;;;;;11.60;6.30;;;;;;;-0.99;71.40;99406.08;24587;1324;3068297;-67
2022/12/14 05:34:40;;;;;;;10.20;5.70;;;;;;;-1.00;72.13;99413.98;24648;1320;3026289;-66
2022/12/14 05:37:09;;;;;;;11.20;6.20;;;;;;;-1.24;71.41;99419.64;24640;1328;3026400;-65
2022/12/14 05:39:38;;;;;;;9.40;5.40;;;;;;;-1.60;72.08;99421.13;24572;1326;3068079;-65
2022/12/14 05:42:07;;;;;;;10.00;5.30;;;;;;;-1.75;72.77;99423.02;24643;1317;3028983;-67
2022/12/14 05:44:38;;;;;;;9.90;6.00;;;;;;;-1.70;72.23;99429.30;24566;1334;3049753;-68
2022/12/14 05:47:07;;;;;;;11.60;6.50;;;;;;;-2.00;72.94;99436.16;24572;1327;3026062;-66
2022/12/14 05:49:36;;;;;;;12.40;7.40;;;;;;;-2.02;72.74;99443.55;24698;1323;3026519;-66
2022/12/14 05:52:05;;;;;;;11.60;6.30;;;;;;;-2.24;73.28;99441.88;24626;1316;3025365;-68
2022/12/14 05:54:34;;;;;;;14.80;8.10;;;;;;;-2.33;73.61;99452.59;24652;1321;3068545;-68
2022/12/14 05:57:05;;;;;;;13.60;7.00;;;;;;;-2.37;73.68;99464.29;24655;1327;3025999;-66
2022/12/14 05:59:34;;;;;;;15.30;6.30;;;;;;;-2.49;74.10;99471.93;24683;1327;3029208;-63
2022/12/14 06:02:04;;;;;;;11.00;7.00;;;;;;;-2.50;74.21;99485.66;24609;1318;3026962;-69
2022/12/14 06:04:33;;;;;;;13.30;6.20;;;;;;;-2.67;74.40;99490.23;24712;1334;3050250;-66
2022/12/14 06:07:09;;;;;;;9.70;6.00;;;;;;;-2.76;74.39;99497.13;24674;1311;3026213;-65
2022/12/14 06:09:40;;;;;;;9.60;4.90;;;;;;;-2.76;74.25;99501.95;24585;1327;3050662;-63
2022/12/14 06:12:35;;;;;;;16.10;7.10;;;;;;;-2.68;73.69;99502.59;24647;1327;3052998;-66
2022/12/14 06:15:28;;;;;;;26.50;9.70;;;;;;;-2.75;73.69;99511.89;24644;1313;3051928;-63
2022/12/14 06:17:57;;;;;;;24.50;7.80;;;;;;;-2.92;74.29;99512.49;24692;1325;3029081;-63
2022/12/14 06:20:26;;;;;;;23.40;8.50;;;;;;;-2.94;74.11;99515.41;24611;1327;3052710;-64
2022/12/14 06:22:56;;;;;;;19.20;7.50;;;;;;;-2.93;73.94;99511.63;24622;1321;3028029;-67
2022/12/14 06:25:26;;;;;;;19.70;8.10;;;;;;;-2.85;73.71;99510.23;24686;1328;3028640;-67
2022/12/14 06:27:55;;;;;;;17.30;7.50;;;;;;;-2.89;73.80;99512.13;24671;1318;3027312;-68
2022/12/14 06:30:24;;;;;;;19.20;6.70;;;;;;;-2.99;74.03;99520.92;24703;1327;3051671;-67
2022/12/14 06:32:54;;;;;;;13.80;6.40;;;;;;;-3.04;73.83;99522.14;24556;1320;3028327;-68
2022/12/14 06:35:23;;;;;;;15.10;7.20;;;;;;;-3.02;73.74;99526.77;24688;1325;3028230;-69
2022/12/14 06:37:52;;;;;;;12.60;7.40;;;;;;;-3.04;74.35;99528.66;24601;1327;3050384;-67
2022/12/14 06:40:20;;;;;;;13.00;6.50;;;;;;;-3.00;73.94;99534.80;24725;1323;3026727;-68
2022/12/14 06:42:49;;;;;;;12.10;6.40;;;;;;;-2.92;73.88;99532.90;24629;1327;3052570;-67
2022/12/14 06:45:18;;;;;;;12.40;6.20;;;;;;;-2.91;73.47;99536.31;24678;1313;3028553;-65
2022/12/14 06:47:48;;;;;;;10.20;6.30;;;;;;;-2.84;73.41;99545.54;24605;1321;3051864;-66
2022/12/14 06:50:17;;;;;;;10.10;5.60;;;;;;;-3.02;74.32;99551.11;24633;1327;3026946;-66
2022/12/14 06:52:49;;;;;;;13.60;6.30;;;;;;;-2.90;73.18;99551.56;24644;1327;3056205;-66
2022/12/14 06:55:18;;;;;;;11.00;5.70;;;;;;;-2.90;73.28;99555.50;24671;1326;3028754;-65
2022/12/14 06:57:51;;;;;;;11.10;5.60;;;;;;;-2.90;73.08;99557.21;24627;1324;3027085;-66
2022/12/14 07:00:22;;;;;;;9.80;5.50;;;;;;;-2.86;72.96;99556.35;24538;1328;3056448;-65
2022/12/14 07:02:51;;;;;;;10.40;4.60;;;;;;;-3.01;73.64;99559.34;24561;1327;3027651;-69
2022/12/14 07:05:20;;;;;;;11.10;5.80;;;;;;;-2.76;72.90;99566.59;24591;1328;3026734;-66
2022/12/14 07:07:51;;;;;;;12.90;6.20;;;;;;;-2.70;72.42;99573.41;24627;1333;3027002;-67
2022/12/14 07:10:21;;;;;;;11.70;6.50;;;;;;;-2.58;72.04;99576.45;24622;1327;3025964;-65
2022/12/14 07:12:50;;;;;;;9.90;5.70;;;;;;;-2.69;71.89;99584.38;24554;1327;3028489;-65
2022/12/14 07:15:21;;;;;;;15.10;7.10;;;;;;;-2.77;71.80;99588.88;24690;1320;3052013;-63
2022/12/14 07:17:50;;;;;;;11.70;5.90;;;;;;;-2.67;71.34;99586.78;24568;1323;3027476;-64
2022/12/14 07:20:19;;;;;;;10.70;5.50;;;;;;;-2.59;70.82;99587.42;24580;1333;3052836;-65
2022/12/14 07:22:48;;;;;;;9.80;5.70;;;;;;;-2.51;70.36;99591.67;24598;1327;3026018;-64
2022/12/14 07:25:17;;;;;;;12.80;6.00;;;;;;;-2.36;70.27;99600.16;24688;1327;3028629;-65
2022/12/14 07:27:46;;;;;;;11.10;5.70;;;;;;;-2.22;70.05;99605.58;24587;1328;3052734;-65
2022/12/14 07:30:15;;;;;;;12.00;6.20;;;;;;;-2.11;70.28;99605.34;24606;1320;3028661;-66
2022/12/14 07:32:45;;;;;;;10.10;5.80;;;;;;;-2.17;70.27;99603.48;24707;1328;3051180;-66
2022/12/14 07:35:14;;;;;;;10.10;5.60;;;;;;;-2.08;70.21;99604.97;24556;1317;3026404;-65
2022/12/14 07:37:48;;;;;;;10.40;5.70;;;;;;;-1.97;69.30;99609.19;24653;1326;3025971;-66
2022/12/14 07:40:16;;;;;;;9.50;5.30;;;;;;;-2.06;68.77;99616.45;24589;1328;3026330;-65
2022/12/14 07:43:10;;;;;;;;;;;;;;;-2.00;68.78;99621.91;24703;1327;3049147;-65
2022/12/14 07:45:39;;;;;;;9.10;4.70;;;;;;;-1.82;68.80;99625.20;24637;1327;3026935;-66
2022/12/14 07:48:08;;;;;;;13.40;6.30;;;;;;;-1.71;68.42;99626.33;24671;1320;3052407;-65
2022/12/14 07:50:37;;;;;;;9.30;4.80;;;;;;;-1.66;67.51;99631.27;24660;1317;3026316;-65
2022/12/14 07:53:10;;;;;;;9.80;5.00;;;;;;;-1.61;67.53;99635.52;24671;1327;3049242;-65
2022/12/14 07:55:39;;;;;;;10.80;5.20;;;;;;;-1.52;67.21;99638.02;24531;1327;3025739;-65
2022/12/14 07:58:08;;;;;;;13.00;5.80;;;;;;;-1.39;67.31;99646.50;24616;1326;3053283;-65
2022/12/14 08:00:36;;;;;;;12.80;6.20;;;;;;;-1.28;67.23;99648.98;24570;1327;3025886;-66
2022/12/14 08:03:07;;;;;;;19.50;7.60;;;;;;;-1.20;66.93;99649.06;24580;1327;3051832;-68
2022/12/14 08:05:38;;;;;;;15.80;7.10;;;;;;;-1.16;66.88;99659.51;24598;1318;3028591;-66
2022/12/14 08:08:33;;;;;;;16.60;7.70;;;;;;;-1.20;66.94;99657.83;24661;1318;3052891;-66
2022/12/14 08:11:02;;;;;;;15.00;6.30;;;;;;;-1.20;66.93;99654.58;24624;1327;3026639;-66
2022/12/14 08:13:32;;;;;;;21.50;10.10;;;;;;;-1.07;66.82;99659.95;24627;1330;3052952;-63
2022/12/14 08:16:04;;;;;;;25.90;11.20;;;;;;;-1.22;67.98;99660.25;24581;1317;3027882;-66
2022/12/14 08:18:34;;;;;;;28.30;11.10;;;;;;;-1.36;68.95;99659.19;24655;1327;3051897;-66
2022/12/14 08:21:04;;;;;;;23.50;10.60;;;;;;;-1.17;68.37;99659.52;24660;1325;3026200;-67
2022/12/14 08:23:33;;;;;;;23.10;10.60;;;;;;;-1.14;68.27;99656.75;24678;1331;3026949;-65
2022/12/14 08:26:04;;;;;;;22.60;10.30;;;;;;;-1.20;67.97;99661.11;24585;1320;3028256;-64
2022/12/14 08:28:34;;;;;;;23.60;10.70;;;;;;;-1.28;68.23;99661.35;24506;1334;3025626;-67
2022/12/14 08:31:04;;;;;;;18.70;9.10;;;;;;;-1.28;68.12;99665.48;24544;1320;3028772;-64
2022/12/14 08:33:34;;;;;;;17.70;7.80;;;;;;;-1.29;68.36;99673.91;24600;1324;3028672;-65
2022/12/14 08:36:21;;;;;;;16.40;8.50;;;;;;;-1.07;67.90;99675.08;24623;1334;3026734;-66
2022/12/14 08:38:54;;;;;;;18.50;8.40;;;;;;;-1.11;68.03;99679.08;24609;1328;3051920;-65
2022/12/14 08:41:23;;;;;;;19.00;9.60;;;;;;;-1.05;67.80;99684.34;24639;1328;3053017;-65
2022/12/14 08:43:57;;;;;;;20.70;11.00;;;;;;;-1.05;68.33;99682.61;24570;1320;3026728;-64
2022/12/14 08:46:28;;;;;;;29.00;11.00;;;;;;;-1.08;69.16;99682.99;24607;1325;3026846;-64
2022/12/14 08:49:22;;;;;;;25.10;10.10;;;;;;;-1.01;68.46;99686.36;24609;1318;3049303;-66
2022/12/14 08:51:51;;;;;;;18.70;8.50;;;;;;;-1.00;67.88;99693.23;24655;1328;3026053;-65
2022/12/14 08:54:22;;;;;;;20.30;8.60;;;;;;;-0.95;68.00;99693.52;24584;1323;3028806;-66
2022/12/14 08:56:52;;;;;;;17.90;8.70;;;;;;;-0.86;67.37;99697.05;24703;1328;3025973;-67
2022/12/14 08:59:20;;;;;;;23.80;8.90;;;;;;;-0.86;67.08;99699.47;24585;1325;3028042;-64
2022/12/14 09:01:49;;;;;;;20.50;7.90;;;;;;;-1.14;66.86;99706.60;24644;1328;3049512;-65
2022/12/14 09:04:19;;;;;;;18.80;8.00;;;;;;;-0.97;66.66;99706.79;24582;1334;3027239;-63
2022/12/14 09:06:48;;;;;;;15.70;8.00;;;;;;;-1.13;66.67;99710.53;24574;1328;3068799;-65
2022/12/14 09:09:17;;;;;;;20.00;9.80;;;;;;;-1.13;67.53;99709.87;24626;1318;3028924;-65
2022/12/14 09:11:46;;;;;;;15.90;7.80;;;;;;;-1.10;67.98;99712.77;24568;1327;3049057;-66
2022/12/14 09:14:15;;;;;;;18.30;7.60;;;;;;;-0.92;67.86;99717.92;24662;1327;3026382;-65
2022/12/14 09:16:44;;;;;;;19.50;8.00;;;;;;;-0.76;67.36;99721.54;24667;1326;3025889;-63
2022/12/14 09:19:15;;;;;;;24.40;9.10;;;;;;;-1.12;67.99;99720.86;24679;1328;3049543;-63
2022/12/14 09:21:44;;;;;;;17.10;8.70;;;;;;;-1.22;68.60;99723.69;24674;1328;3028230;-69
2022/12/14 09:24:13;;;;;;;16.40;7.80;;;;;;;-1.35;69.17;99731.02;24595;1327;3052034;-63
2022/12/14 09:26:43;;;;;;;15.30;7.80;;;;;;;-1.24;68.77;99727.66;24590;1324;3028005;-65
2022/12/14 09:29:13;;;;;;;20.30;9.10;;;;;;;-1.01;68.32;99722.98;24632;1326;3050221;-64
2022/12/14 09:31:42;;;;;;;18.20;8.20;;;;;;;-1.02;68.37;99725.92;24590;1327;3027988;-64
2022/12/14 09:34:11;;;;;;;17.00;8.70;;;;;;;-1.15;68.52;99733.93;24670;1326;3026204;-64
2022/12/14 09:36:41;;;;;;;17.50;9.50;;;;;;;-1.31;70.02;99737.70;24578;1317;3051454;-64
2022/12/14 09:39:13;;;;;;;11.80;6.90;;;;;;;-1.21;69.42;99733.83;24617;1323;3028808;-66
2022/12/14 09:42:12;;;;;;;17.60;9.30;;;;;;;-0.94;68.54;99733.76;24687;1328;3053394;-65
2022/12/14 09:44:47;;;;;;;16.30;7.70;;;;;;;-1.02;68.94;99734.86;24634;1329;3052308;-63
2022/12/14 09:47:23;;;;;;;16.20;6.80;;;;;;;-0.94;68.73;99735.65;24715;1326;3053148;-66
2022/12/14 09:49:57;;;;;;;16.90;8.40;;;;;;;-0.84;68.03;99738.30;24609;1313;3049654;-68
2022/12/14 09:52:41;;;;;;;20.90;9.00;;;;;;;-0.77;68.03;99735.15;24569;1328;3067922;-66
2022/12/14 09:55:49;;;;;;;17.00;7.50;;;;;;;-0.88;68.33;99736.98;24691;1325;3050336;-68
2022/12/14 09:58:19;;;;;;;22.00;8.30;;;;;;;-0.72;68.08;99730.45;24695;1327;3055261;-68
2022/12/14 10:01:13;;;;;;;16.90;8.20;;;;;;;-0.85;68.14;99736.76;24638;1320;3026449;-68
2022/12/14 10:04:10;;;;;;;16.30;8.30;;;;;;;-0.84;68.09;99737.10;24699;1328;3052964;-70
2022/12/14 10:06:42;;;;;;;22.00;9.30;;;;;;;-1.05;69.28;99742.44;24647;1322;3051916;-65
2022/12/14 10:09:16;;;;;;;18.20;8.70;;;;;;;-0.68;68.48;99741.23;24580;1325;3028806;-68
2022/12/14 10:12:14;;;;;;;22.80;10.90;;;;;;;-0.61;68.07;99747.73;24623;1327;3048503;-69
2022/12/14 10:14:46;;;;;;;19.90;9.90;;;;;;;-0.61;68.43;99746.51;24669;1318;3069079;-65
2022/12/14 10:17:28;;;;;;;25.70;11.70;;;;;;;-0.72;69.26;99747.13;24664;1319;3027989;-67
2022/12/14 10:20:03;;;;;;;35.40;15.00;;;;;;;-0.72;69.66;99751.79;24640;1328;3055928;-66
2022/12/14 10:22:37;;;;;;;29.30;12.50;;;;;;;-0.64;69.44;99757.90;24677;1321;3052186;-67
2022/12/14 10:25:23;;;;;;;27.60;12.50;;;;;;;-0.61;68.99;99765.95;24725;1323;3053085;-66
2022/12/14 10:28:03;;;;;;;29.00;12.10;;;;;;;-0.38;68.73;99763.46;24654;1324;3051292;-65
2022/12/14 10:30:33;;;;;;;28.70;11.30;;;;;;;-0.41;67.95;99763.66;24679;1328;3052802;-68
2022/12/14 10:33:20;;;;;;;19.60;9.60;;;;;;;-0.45;68.49;99775.23;24627;1335;3026759;-69
2022/12/14 10:35:53;;;;;;;23.80;10.60;;;;;;;-0.02;66.55;99782.33;24612;1317;3068073;-67
2022/12/14 10:38:28;;;;;;;18.90;9.50;;;;;;;-0.45;67.53;99779.89;24695;1326;3026325;-71
2022/12/14 10:41:29;;;;;;;23.00;9.90;;;;;;;-0.41;67.43;99781.91;24652;1323;3056712;-70
2022/12/14 10:44:14;;;;;;;16.00;9.00;;;;;;;-0.50;67.85;99790.44;24694;1320;3051839;-70
2022/12/14 10:47:03;;;;;;;17.10;9.60;;;;;;;-0.62;68.25;99793.48;24694;1327;3054108;-65
2022/12/14 10:50:03;;;;;;;18.20;9.00;;;;;;;-0.26;67.60;99793.98;24610;1327;3051873;-65
2022/12/14 10:52:37;;;;;;;17.00;8.60;;;;;;;-0.28;68.16;99793.48;24601;1327;3051696;-66
2022/12/14 10:55:17;;;;;;;25.50;11.60;;;;;;;-0.24;68.62;99796.88;24682;1337;3049220;-67
2022/12/14 10:57:46;;;;;;;25.50;11.50;;;;;;;-0.21;67.51;99801.66;24566;1328;3069308;-64
2022/12/14 11:00:16;;;;;;;24.70;12.30;;;;;;;-0.19;67.39;99803.71;24664;1320;3027922;-65
2022/12/14 11:02:47;;;;;;;29.10;12.30;;;;;;;-0.19;67.95;99801.48;24613;1327;3049223;-68
2022/12/14 11:05:48;;;;;;;20.80;9.30;;;;;;;-0.17;67.63;99808.87;24591;1334;3068423;-68
2022/12/14 11:08:44;;;;;;;19.40;10.30;;;;;;;-0.04;67.19;99814.73;24584;1334;3050247;-68
2022/12/14 11:11:38;;;;;;;22.30;9.30;;;;;;;-0.03;67.35;99802.83;24588;1327;3055799;-68
2022/12/14 11:14:57;;;;;;;19.70;9.70;;;;;;;0.14;66.41;99806.95;24610;1320;3052422;-64
2022/12/14 11:18:16;;;;;;;15.60;8.80;;;;;;;0.05;65.72;99806.70;24592;1320;3053489;-65
2022/12/14 11:21:36;;;;;;;21.00;10.10;;;;;;;-0.36;67.18;99811.30;24601;1327;3051808;-65
2022/12/14 11:24:28;;;;;;;21.50;9.90;;;;;;;-0.39;67.01;99811.48;24647;1325;4325827;-68
2022/12/14 11:26:58;;;;;;;21.60;11.10;;;;;;;-0.23;66.83;99806.85;24728;1318;3048547;-67
2022/12/14 11:29:34;;;;;;;20.50;10.00;;;;;;;-0.15;66.17;99803.84;24677;1327;3026272;-71
2022/12/14 11:32:03;;;;;;;20.30;9.00;;;;;;;-0.16;65.87;99800.23;24666;1327;3049431;-66
2022/12/14 11:34:37;;;;;;;16.90;9.80;;;;;;;-0.11;66.11;99790.19;24670;1323;3025502;-65
2022/12/14 11:37:22;;;;;;;15.50;9.80;;;;;;;-0.28;66.49;99794.86;24632;1318;3025962;-70
2022/12/14 11:39:57;;;;;;;23.10;10.70;;;;;;;-0.10;65.22;99797.75;24540;1324;3052864;-69
2022/12/14 11:42:26;;;;;;;17.30;9.60;;;;;;;-0.21;65.67;99801.84;24689;1328;3050328;-70
2022/12/14 11:45:24;;;;;;;19.00;9.60;;;;;;;0.08;65.08;99809.92;24726;1321;3026520;-67
2022/12/14 11:48:12;;;;;;;15.80;8.40;;;;;;;-0.00;65.12;99797.98;24682;1320;3053069;-66
2022/12/14 11:50:46;;;;;;;14.60;7.80;;;;;;;-0.04;65.11;99802.17;24683;1324;3052044;-65
2022/12/14 11:53:16;;;;;;;15.70;8.80;;;;;;;0.03;64.75;99798.80;24558;1327;3026112;-65
2022/12/14 11:55:56;;;;;;;18.30;9.10;;;;;;;0.05;64.82;99802.40;24652;1328;3026744;-64
2022/12/14 11:58:30;;;;;;;16.50;9.10;;;;;;;-0.23;64.68;99815.65;24661;1326;3069321;-68
2022/12/14 12:01:02;;;;;;;16.40;7.60;;;;;;;-0.27;65.61;99815.34;24652;1327;3048963;-68
2022/12/14 12:03:38;;;;;;;17.40;9.40;;;;;;;-0.16;65.24;99823.48;24671;1331;3028559;-67